Time;durP1;ratioP1;P1;durP2;ratioP2;P2;SDS_P1;SDS_P2;PMS_P1;PMS_P2;Temp;Humidity;BMP_temperature;BMP_pressure;BME280_temperature;BME280_humidity;BME280_pressure;Samples;Min_cycle;Max_cycle;Signal;HPM_P1;HPM_P2
2023/11/13 00:01:07;;;;;;;6.07;2.53;;;4.90;99.90;;;;;;12440482;28;20162;-34
2023/11/13 00:07:25;;;;;;;7.68;2.35;;;4.80;99.90;;;;;;12446936;28;20048;-34
2023/11/13 00:13:45;;;;;;;3.60;2.28;;;4.70;99.90;;;;;;12488874;28;20049;-34
2023/11/13 00:20:11;;;;;;;5.47;1.98;;;4.80;99.90;;;;;;12489070;28;20053;-34
2023/11/13 00:26:33;;;;;;;6.43;2.28;;;4.80;99.90;;;;;;12488104;28;20107;-34
2023/11/13 00:32:51;;;;;;;4.25;2.38;;;4.80;99.90;;;;;;12482219;28;20054;-34
2023/11/13 00:39:10;;;;;;;5.53;2.10;;;4.80;99.90;;;;;;12485995;28;20136;-34
2023/11/13 00:45:31;;;;;;;4.00;2.20;;;4.70;99.90;;;;;;12465368;28;20054;-34
2023/11/13 00:51:46;;;;;;;6.28;2.05;;;4.70;99.90;;;;;;12488058;28;20049;-34
2023/11/13 00:58:05;;;;;;;6.32;2.40;;;4.80;99.90;;;;;;12484790;28;20096;-34
2023/11/13 01:04:13;;;;;;;4.15;1.83;;;4.80;99.90;;;;;;12488579;28;20081;-34
2023/11/13 01:10:27;;;;;;;4.50;2.47;;;4.70;99.90;;;;;;12485153;28;20084;-34
2023/11/13 01:16:44;;;;;;;3.75;2.03;;;4.70;99.90;;;;;;12483430;28;20068;-34
2023/11/13 01:23:00;;;;;;;5.03;2.53;;;4.70;99.90;;;;;;12479036;28;20128;-34
2023/11/13 01:29:25;;;;;;;3.55;1.85;;;4.70;99.90;;;;;;12477595;28;20049;-34
2023/11/13 01:35:33;;;;;;;3.78;1.95;;;4.70;99.90;;;;;;12463473;28;20980;-34
2023/11/13 01:41:56;;;;;;;7.22;2.25;;;4.80;99.90;;;;;;12462807;28;20111;-34
2023/11/13 01:48:18;;;;;;;6.00;2.97;;;4.80;99.90;;;;;;12479713;28;20141;-34
2023/11/13 01:54:38;;;;;;;7.57;2.60;;;4.90;99.90;;;;;;12479290;28;20049;-34
2023/11/13 02:01:03;;;;;;;3.97;2.05;;;4.90;99.90;;;;;;12482543;28;20455;-34
2023/11/13 02:07:20;;;;;;;3.90;2.00;;;4.70;99.90;;;;;;12480286;28;20156;-34
2023/11/13 02:13:37;;;;;;;4.68;1.92;;;4.70;99.90;;;;;;12465818;28;20049;-34
2023/11/13 02:20:19;;;;;;;4.45;1.90;;;4.70;99.90;;;;;;12482559;28;20054;-34
2023/11/13 02:26:29;;;;;;;7.07;2.78;;;4.70;99.90;;;;;;12477481;28;20053;-34
2023/11/13 02:32:57;;;;;;;4.50;2.05;;;4.80;99.90;;;;;;12458180;28;20049;-34
2023/11/13 02:39:24;;;;;;;4.47;2.58;;;4.90;99.90;;;;;;12468506;28;20088;-35
2023/11/13 02:45:54;;;;;;;5.57;3.80;;;5.10;99.90;;;;;;12478669;28;20065;-35
2023/11/13 02:52:10;;;;;;;8.55;3.33;;;5.40;99.90;;;;;;12483752;28;20152;-34
2023/11/13 02:58:37;;;;;;;7.28;2.75;;;5.10;99.90;;;;;;12479204;28;20395;-35
2023/11/13 03:05:29;;;;;;;6.72;3.40;;;4.90;99.90;;;;;;12468633;28;20062;-34
2023/11/13 03:12:05;;;;;;;7.03;3.30;;;5.10;99.90;;;;;;12476588;28;20128;-34
2023/11/13 03:18:57;;;;;;;6.53;3.17;;;4.40;99.90;;;;;;12476891;28;20084;-34
2023/11/13 03:25:37;;;;;;;4.80;2.43;;;4.00;99.90;;;;;;12480496;28;20125;-34
2023/11/13 03:32:20;;;;;;;5.13;2.63;;;4.40;99.90;;;;;;12477409;28;20050;-35
2023/11/13 03:39:13;;;;;;;4.93;2.95;;;4.40;99.90;;;;;;12482434;28;20830;-34
2023/11/13 03:45:52;;;;;;;7.20;3.20;;;4.30;99.90;;;;;;12475195;28;20413;-34
2023/11/13 03:52:34;;;;;;;4.95;2.80;;;4.40;99.90;;;;;;12483816;28;20046;-34
2023/11/13 03:59:18;;;;;;;6.35;2.78;;;4.20;99.90;;;;;;12478055;28;20053;-34
2023/11/13 04:06:04;;;;;;;5.28;2.72;;;4.40;99.90;;;;;;12463350;28;20061;-34
2023/11/13 04:12:52;;;;;;;4.20;2.75;;;4.40;99.90;;;;;;12476078;28;20095;-33
2023/11/13 04:19:20;;;;;;;6.32;3.33;;;4.60;99.90;;;;;;12474238;28;20053;-34
2023/11/13 04:26:00;;;;;;;6.40;2.97;;;4.20;99.90;;;;;;12469927;28;20065;-34
2023/11/13 04:32:58;;;;;;;6.23;3.00;;;3.80;99.90;;;;;;12483296;28;20046;-34
2023/11/13 04:39:35;;;;;;;7.88;2.97;;;3.90;99.90;;;;;;12489220;28;20191;-34
2023/11/13 04:46:23;;;;;;;6.32;2.90;;;4.00;99.90;;;;;;12474863;28;20110;-34
2023/11/13 04:53:19;;;;;;;4.93;2.63;;;4.20;99.90;;;;;;12487386;28;20509;-34
2023/11/13 05:00:00;;;;;;;7.50;2.97;;;4.20;99.90;;;;;;12485634;28;20076;-34
2023/11/13 05:06:24;;;;;;;6.25;3.17;;;4.00;99.90;;;;;;12486982;28;20061;-34
2023/11/13 05:12:41;;;;;;;7.78;3.55;;;4.00;99.90;;;;;;12488321;28;20061;-34
2023/11/13 05:19:14;;;;;;;8.20;4.68;;;4.10;99.90;;;;;;12490660;28;20060;-34
2023/11/13 05:26:01;;;;;;;8.07;4.57;;;4.20;99.90;;;;;;12469097;28;20053;-34
2023/11/13 05:32:37;;;;;;;8.85;4.78;;;4.20;99.90;;;;;;12488182;28;20084;-34
2023/11/13 05:38:50;;;;;;;9.07;5.65;;;4.20;99.90;;;;;;12481375;28;20132;-34
2023/11/13 05:45:09;;;;;;;;;;;4.30;99.90;;;;;;12486062;28;21483;-34
2023/11/13 05:51:34;;;;;;;10.48;5.22;;;4.40;99.90;;;;;;12480061;28;19921;-34
2023/11/13 05:57:49;;;;;;;;;;;4.50;99.90;;;;;;12483481;28;20045;-34
2023/11/13 06:04:17;;;;;;;12.75;5.80;;;4.50;99.90;;;;;;12482538;28;19956;-34
2023/11/13 06:10:48;;;;;;;11.05;5.35;;;4.60;99.90;;;;;;12481796;28;20421;-34
2023/11/13 06:17:23;;;;;;;11.50;5.82;;;4.70;99.90;;;;;;12462497;28;20094;-34
2023/11/13 06:23:49;;;;;;;12.25;6.28;;;4.80;99.90;;;;;;12468610;28;20204;-34
2023/11/13 06:30:25;;;;;;;13.93;6.32;;;4.80;99.90;;;;;;12480720;28;20075;-34
2023/11/13 06:37:00;;;;;;;12.93;6.75;;;4.90;99.90;;;;;;12482821;28;20475;-34
2023/11/13 06:43:26;;;;;;;16.10;7.65;;;4.80;99.90;;;;;;12474834;28;20065;-34
2023/11/13 06:50:00;;;;;;;13.48;7.45;;;4.80;99.90;;;;;;12483049;28;20057;-34
2023/11/13 06:56:39;;;;;;;12.82;7.28;;;4.80;99.90;;;;;;12461818;28;20528;-34
2023/11/13 07:03:24;;;;;;;14.32;8.30;;;4.80;99.90;;;;;;12480209;28;20136;-34
2023/11/13 07:10:01;;;;;;;15.38;8.20;;;4.80;99.90;;;;;;12480564;28;20045;-34
2023/11/13 07:16:44;;;;;;;15.10;8.18;;;4.90;99.90;;;;;;12480336;28;20143;-34
2023/11/13 07:23:39;;;;;;;15.77;8.68;;;4.90;99.90;;;;;;12470634;28;20045;-34
2023/11/13 07:30:33;;;;;;;15.98;8.65;;;4.90;99.90;;;;;;12465617;28;20056;-34
2023/11/13 07:37:11;;;;;;;18.00;9.70;;;5.00;99.90;;;;;;12479485;28;20513;-34
2023/11/13 07:43:56;;;;;;;17.73;9.60;;;5.10;99.90;;;;;;12476057;28;20136;-34
2023/11/13 07:50:38;;;;;;;19.50;9.43;;;5.20;99.90;;;;;;12478195;28;20050;-34
2023/11/13 07:57:12;;;;;;;18.65;10.02;;;5.20;99.90;;;;;;12491197;28;20073;-34
2023/11/13 08:03:37;;;;;;;18.05;10.00;;;5.30;99.90;;;;;;12492581;28;20457;-34
2023/11/13 08:10:18;;;;;;;19.17;9.70;;;5.40;99.90;;;;;;12484635;28;20461;-34
2023/11/13 08:16:53;;;;;;;15.38;9.02;;;5.50;99.90;;;;;;12488377;28;20386;-35
2023/11/13 08:23:32;;;;;;;18.75;9.38;;;5.50;99.90;;;;;;12486684;28;20601;-34
2023/11/13 08:30:07;;;;;;;18.92;11.07;;;5.70;99.90;;;;;;12486744;28;20504;-34
2023/11/13 08:36:50;;;;;;;21.95;10.25;;;5.80;99.90;;;;;;12489555;28;20094;-34
2023/11/13 08:43:26;;;;;;;16.63;9.20;;;5.90;99.90;;;;;;12482205;28;20061;-34
2023/11/13 08:50:11;;;;;;;14.63;8.88;;;6.00;99.90;;;;;;12488334;28;20584;-34
2023/11/13 08:56:55;;;;;;;17.77;9.93;;;6.10;99.90;;;;;;12485236;28;20107;-34
2023/11/13 09:03:33;;;;;;;15.70;9.10;;;6.00;99.90;;;;;;12469782;28;20061;-35
2023/11/13 09:10:16;;;;;;;15.63;9.25;;;6.10;99.90;;;;;;12474517;28;20098;-34
2023/11/13 09:16:56;;;;;;;16.33;8.60;;;6.20;99.90;;;;;;12469758;28;20090;-35
2023/11/13 09:23:28;;;;;;;;;;;6.30;99.90;;;;;;12471288;28;20461;-34
2023/11/13 09:30:04;;;;;;;14.10;7.95;;;6.30;99.90;;;;;;12481465;28;19924;-34
2023/11/13 09:36:45;;;;;;;13.40;7.93;;;6.40;99.90;;;;;;12486970;28;20052;-34
2023/11/13 09:43:20;;;;;;;12.15;6.90;;;6.40;99.90;;;;;;12480982;28;20069;-34
2023/11/13 09:50:04;;;;;;;10.43;6.57;;;6.40;99.90;;;;;;12479057;28;20037;-34
2023/11/13 09:56:56;;;;;;;12.75;7.30;;;6.40;99.90;;;;;;12467913;28;20951;-34
2023/11/13 10:03:25;;;;;;;11.15;6.93;;;6.50;99.90;;;;;;12484179;28;20136;-34
2023/11/13 10:10:22;;;;;;;14.07;6.75;;;6.50;99.90;;;;;;12481528;28;20057;-34
2023/11/13 10:17:07;;;;;;;9.40;5.55;;;6.50;99.90;;;;;;12483635;28;20508;-34
2023/11/13 10:23:43;;;;;;;8.77;5.25;;;6.50;99.90;;;;;;12482581;28;20049;-34
2023/11/13 10:30:18;;;;;;;8.85;5.40;;;6.50;99.90;;;;;;12466749;28;20053;-34
2023/11/13 10:37:11;;;;;;;7.78;4.82;;;6.60;99.90;;;;;;12479920;28;20045;-34
2023/11/13 10:43:50;;;;;;;8.68;4.47;;;6.70;99.90;;;;;;12480187;28;20080;-34
2023/11/13 10:50:18;;;;;;;6.75;4.22;;;6.70;99.90;;;;;;12464637;28;20405;-35
2023/11/13 10:56:44;;;;;;;7.15;4.60;;;6.80;99.90;;;;;;12478365;28;20054;-34
2023/11/13 11:03:24;;;;;;;7.32;4.47;;;6.90;99.90;;;;;;12476768;28;20133;-35
2023/11/13 11:09:52;;;;;;;7.28;4.00;;;7.10;99.90;;;;;;12475294;28;20106;-34
2023/11/13 11:16:18;;;;;;;8.43;4.18;;;7.10;99.90;;;;;;12475235;28;20049;-34
2023/11/13 11:22:49;;;;;;;7.78;4.00;;;7.20;99.90;;;;;;12479042;28;20128;-34
2023/11/13 11:29:31;;;;;;;7.32;3.92;;;7.20;99.90;;;;;;12491375;28;20095;-34
2023/11/13 11:35:53;;;;;;;7.55;3.78;;;7.30;99.90;;;;;;12492787;28;20647;-35
2023/11/13 11:42:23;;;;;;;6.32;3.35;;;7.40;99.90;;;;;;12487364;28;20137;-34
2023/11/13 11:48:41;;;;;;;6.00;3.17;;;7.50;99.90;;;;;;12488325;28;20057;-35
2023/11/13 11:55:12;;;;;;;5.72;3.17;;;7.50;99.90;;;;;;12487933;28;20722;-35
2023/11/13 12:01:40;;;;;;;5.53;2.90;;;7.60;99.90;;;;;;12490421;28;20046;-34
2023/11/13 12:08:12;;;;;;;4.40;2.50;;;7.70;99.90;;;;;;12479330;28;20061;-34
2023/11/13 12:14:57;;;;;;;5.40;2.50;;;7.70;99.90;;;;;;12487085;28;20068;-34
2023/11/13 12:21:32;;;;;;;5.57;2.85;;;7.70;99.90;;;;;;12489542;28;20049;-35
2023/11/13 12:28:22;;;;;;;4.65;2.78;;;7.70;99.90;;;;;;12489013;28;20083;-34
2023/11/13 12:35:05;;;;;;;4.00;2.70;;;7.50;99.90;;;;;;12482113;28;20038;-34
2023/11/13 12:41:41;;;;;;;3.25;2.05;;;7.50;99.90;;;;;;12485494;28;20091;-35
2023/11/13 12:48:17;;;;;;;4.72;2.20;;;7.50;99.90;;;;;;12486993;28;20053;-34
2023/11/13 12:54:55;;;;;;;3.00;1.98;;;7.60;99.90;;;;;;12480192;28;20050;-34
2023/11/13 13:01:35;;;;;;;3.63;2.00;;;7.40;99.90;;;;;;12481572;28;20502;-34
2023/11/13 13:08:07;;;;;;;3.15;1.70;;;7.40;99.90;;;;;;12487169;28;20494;-34
2023/11/13 13:14:51;;;;;;;2.22;1.30;;;7.40;99.90;;;;;;12468163;28;20054;-34
2023/11/13 13:21:22;;;;;;;3.75;1.30;;;7.50;99.90;;;;;;12486606;28;20658;-34
2023/11/13 13:28:04;;;;;;;1.77;0.90;;;7.60;99.90;;;;;;12466905;28;20586;-34
2023/11/13 13:34:43;;;;;;;1.42;0.90;;;7.70;99.90;;;;;;12480420;28;20073;-42
2023/11/13 13:41:23;;;;;;;2.05;0.80;;;7.80;99.90;;;;;;12478082;28;20097;-43
2023/11/13 13:47:57;;;;;;;1.58;1.00;;;7.80;99.90;;;;;;12475047;28;20513;-43
2023/11/13 13:54:27;;;;;;;2.25;1.00;;;7.80;99.90;;;;;;12475334;28;20410;-42
2023/11/13 14:00:54;;;;;;;2.10;1.08;;;7.90;99.90;;;;;;12482590;28;20057;-43
2023/11/13 14:07:14;;;;;;;1.45;1.08;;;8.10;99.90;;;;;;12460445;28;20060;-43
2023/11/13 14:13:37;;;;;;;2.65;1.05;;;8.00;99.90;;;;;;12446674;28;20064;-43
2023/11/13 14:20:14;;;;;;;1.88;1.23;;;8.10;99.90;;;;;;12430264;28;20057;-43
2023/11/13 14:26:53;;;;;;;3.55;1.48;;;8.20;99.90;;;;;;12439813;28;20050;-43
2023/11/13 14:33:18;;;;;;;1.85;1.25;;;8.20;99.90;;;;;;12425324;28;20046;-43
2023/11/13 14:39:38;;;;;;;1.83;1.15;;;8.40;99.90;;;;;;12427787;28;20054;-42
2023/11/13 14:45:59;;;;;;;2.25;1.35;;;8.80;99.90;;;;;;12430079;28;20557;-43
2023/11/13 14:52:30;;;;;;;4.72;1.58;;;9.00;99.90;;;;;;12434693;28;20054;-42
2023/11/13 14:58:58;;;;;;;2.00;1.45;;;9.10;99.90;;;;;;12434101;28;20080;-43
2023/11/13 15:05:26;;;;;;;1.90;1.23;;;9.30;99.90;;;;;;12444059;28;20046;-43
2023/11/13 15:12:01;;;;;;;1.70;1.20;;;9.70;99.90;;;;;;12472924;28;20049;-43
2023/11/13 15:18:47;;;;;;;3.22;1.33;;;10.00;99.90;;;;;;12476939;28;20128;-43
2023/11/13 15:25:26;;;;;;;2.45;1.33;;;10.20;99.90;;;;;;12479557;28;20057;-43
2023/11/13 15:32:06;;;;;;;3.38;1.55;;;10.50;99.90;;;;;;12467411;28;20045;-44
2023/11/13 15:38:47;;;;;;;2.42;1.75;;;10.80;99.90;;;;;;12477911;28;20387;-43
2023/11/13 15:45:33;;;;;;;3.38;1.70;;;10.80;99.90;;;;;;12480721;28;20059;-43
2023/11/13 15:52:08;;;;;;;2.83;1.88;;;10.90;99.90;;;;;;12476593;28;20171;-42
2023/11/13 15:58:57;;;;;;;3.35;2.13;;;11.10;99.90;;;;;;12466897;28;20045;-43
2023/11/13 16:05:34;;;;;;;2.28;1.65;;;11.20;99.90;;;;;;12482909;28;20145;-43
2023/11/13 16:12:05;;;;;;;3.88;2.30;;;11.40;99.90;;;;;;12476460;28;20095;-43
2023/11/13 16:18:51;;;;;;;3.75;2.25;;;11.50;99.90;;;;;;12487282;28;20057;-43
2023/11/13 16:25:21;;;;;;;1.95;1.60;;;11.60;99.90;;;;;;12486739;28;20045;-43
2023/11/13 16:32:03;;;;;;;2.33;1.52;;;11.70;99.90;;;;;;12481398;28;20442;-43
2023/11/13 16:38:35;;;;;;;3.05;1.77;;;11.70;99.90;;;;;;12488288;28;20084;-44
2023/11/13 16:44:55;;;;;;;1.90;1.60;;;11.70;99.90;;;;;;12483290;28;20053;-43
2023/11/13 16:51:30;;;;;;;2.60;1.60;;;11.80;99.90;;;;;;12485336;28;20549;-43
2023/11/13 16:58:05;;;;;;;3.33;1.60;;;11.90;99.90;;;;;;12480500;28;20049;-43
2023/11/13 17:04:46;;;;;;;2.42;1.27;;;12.00;99.90;;;;;;12487055;28;20049;-43
2023/11/13 17:11:10;;;;;;;3.75;1.30;;;12.20;99.90;;;;;;12480028;28;20080;-43
2023/11/13 17:18:04;;;;;;;3.08;1.60;;;12.30;99.90;;;;;;12474257;28;20068;-43
2023/11/13 17:24:24;;;;;;;1.27;1.00;;;12.20;99.90;;;;;;12487055;28;20057;-43
2023/11/13 17:30:57;;;;;;;5.03;1.45;;;12.20;99.90;;;;;;12488943;28;20136;-43
2023/11/13 17:37:04;;;;;;;6.18;1.67;;;12.20;99.90;;;;;;12468042;28;20045;-43
2023/11/13 17:43:21;;;;;;;5.07;2.15;;;12.20;99.90;;;;;;12480991;28;20096;-43
2023/11/13 17:49:36;;;;;;;8.27;3.05;;;12.20;99.90;;;;;;12483901;28;20554;-43
2023/11/13 17:56:08;;;;;;;4.93;1.77;;;12.30;99.90;;;;;;12477024;28;20038;-44
2023/11/13 18:02:44;;;;;;;4.32;1.92;;;12.40;99.90;;;;;;12484510;28;20410;-44
2023/11/13 18:09:17;;;;;;;6.78;1.90;;;12.40;99.90;;;;;;12480858;28;20533;-43
2023/11/13 18:15:48;;;;;;;10.57;1.73;;;12.30;99.90;;;;;;12480106;28;20053;-43
2023/11/13 18:22:31;;;;;;;10.73;2.10;;;12.20;99.90;;;;;;12483107;28;20144;-43
2023/11/13 18:28:57;;;;;;;10.13;2.08;;;12.30;99.90;;;;;;12483530;28;20288;-43
2023/11/13 18:35:25;;;;;;;10.93;1.90;;;12.40;99.90;;;;;;12471008;28;20046;-43
2023/11/13 18:41:51;;;;;;;11.35;2.92;;;12.40;99.90;;;;;;12484446;28;20490;-43
2023/11/13 18:48:22;;;;;;;12.13;2.25;;;12.30;99.90;;;;;;12479002;28;20187;-43
2023/11/13 18:55:07;;;;;;;12.45;2.92;;;12.20;99.90;;;;;;12484510;28;20046;-43
2023/11/13 19:01:37;;;;;;;15.10;2.78;;;12.20;99.90;;;;;;12481189;28;20469;-43
2023/11/13 19:08:10;;;;;;;9.93;2.05;;;12.00;99.90;;;;;;12482999;28;20050;-43
2023/11/13 19:15:34;;;;;;;13.25;2.42;;;12.00;99.90;;;;;;12195177;27;11749047;-35
2023/11/13 19:21:59;;;;;;;12.40;2.28;;;12.00;99.90;;;;;;12581667;28;20083;-35
2023/11/13 19:28:27;;;;;;;13.98;1.95;;;11.90;99.90;;;;;;12579418;28;20155;-35
2023/11/13 19:34:45;;;;;;;;;;;11.80;99.90;;;;;;12576097;28;20048;-35
2023/11/13 19:41:16;;;;;;;13.68;2.20;;;11.60;99.90;;;;;;12575420;28;19928;-35
2023/11/13 19:47:43;;;;;;;10.82;2.35;;;11.70;99.90;;;;;;12576637;28;20067;-35
2023/11/13 19:54:08;;;;;;;11.32;2.10;;;11.70;99.90;;;;;;12574357;28;20052;-35
2023/11/13 20:00:33;;;;;;;11.88;2.17;;;11.70;99.90;;;;;;12574633;28;20056;-35
2023/11/13 20:07:11;;;;;;;15.93;2.33;;;11.60;99.90;;;;;;12574360;28;20468;-35
2023/11/13 20:13:39;;;;;;;12.10;1.95;;;11.60;99.90;;;;;;12597924;28;20055;-35
2023/11/13 20:20:18;;;;;;;8.95;1.83;;;11.70;99.90;;;;;;12606910;28;20048;-35
2023/11/13 20:26:44;;;;;;;7.50;1.50;;;11.90;99.90;;;;;;12574598;28;20063;-35
2023/11/13 20:33:11;;;;;;;8.18;1.75;;;11.80;99.90;;;;;;12583519;28;20040;-35
2023/11/13 20:39:42;;;;;;;9.23;2.08;;;11.80;99.90;;;;;;12590786;28;20493;-35
2023/11/13 20:46:02;;;;;;;10.20;1.58;;;11.70;99.90;;;;;;12581043;28;20488;-35
2023/11/13 20:52:30;;;;;;;11.23;2.10;;;11.70;99.90;;;;;;12571140;28;20048;-35
2023/11/13 20:59:13;;;;;;;10.80;1.50;;;11.60;99.90;;;;;;12581509;28;20075;-35
2023/11/13 21:05:41;;;;;;;12.38;2.00;;;11.60;99.90;;;;;;12589252;28;20045;-35
2023/11/13 21:12:24;;;;;;;11.18;1.48;;;11.50;99.90;;;;;;12572775;28;20501;-35
2023/11/13 21:18:48;;;;;;;8.48;1.45;;;11.40;99.90;;;;;;12584645;28;20416;-35
2023/11/13 21:25:35;;;;;;;13.40;2.00;;;11.30;99.90;;;;;;12588136;28;20377;-35
2023/11/13 21:32:00;;;;;;;7.70;1.42;;;11.40;99.90;;;;;;12586563;28;20435;-35
2023/11/13 21:38:40;;;;;;;11.38;2.17;;;11.40;99.90;;;;;;12581801;28;20508;-35
2023/11/13 21:45:13;;;;;;;7.13;1.80;;;11.40;99.90;;;;;;12586657;28;20053;-35
2023/11/13 21:51:37;;;;;;;10.77;1.98;;;11.30;99.90;;;;;;12584400;28;20499;-35
2023/11/13 21:58:10;;;;;;;11.55;1.63;;;11.30;99.90;;;;;;12587094;28;20056;-35
2023/11/13 22:04:52;;;;;;;10.77;2.08;;;11.30;99.90;;;;;;12571402;28;20080;-35
2023/11/13 22:11:22;;;;;;;15.27;2.28;;;11.30;99.90;;;;;;12575446;28;20408;-35
2023/11/13 22:17:52;;;;;;;9.95;1.73;;;11.30;99.90;;;;;;12583734;28;20070;-35
2023/11/13 22:24:24;;;;;;;11.50;1.83;;;11.20;99.90;;;;;;12566325;28;20067;-35
2023/11/13 22:31:02;;;;;;;12.43;2.20;;;11.30;99.90;;;;;;12582414;28;20469;-35
2023/11/13 22:37:22;;;;;;;12.60;1.75;;;11.30;99.90;;;;;;12565402;28;20470;-35
2023/11/13 22:43:52;;;;;;;16.63;2.13;;;11.30;99.90;;;;;;12583175;28;20134;-35
2023/11/13 22:50:09;;;;;;;11.05;3.05;;;11.20;99.90;;;;;;12579085;28;20461;-35
2023/11/13 22:56:36;;;;;;;11.83;2.43;;;11.20;99.90;;;;;;12583875;28;20424;-35
2023/11/13 23:03:15;;;;;;;13.00;2.38;;;11.10;99.90;;;;;;12585837;28;20162;-35
2023/11/13 23:09:43;;;;;;;;;;;11.10;99.90;;;;;;12579245;28;20049;-35
2023/11/13 23:16:15;;;;;;;14.32;1.95;;;11.10;99.90;;;;;;12582136;28;20034;-34
2023/11/13 23:22:49;;;;;;;10.50;1.67;;;11.20;99.90;;;;;;12582729;28;20053;-35
2023/11/13 23:29:23;;;;;;;15.80;1.88;;;11.10;99.90;;;;;;12583730;28;20139;-35
2023/11/13 23:35:54;;;;;;;17.65;2.42;;;11.00;99.90;;;;;;12582737;28;20568;-35
2023/11/13 23:42:22;;;;;;;13.10;1.88;;;10.90;99.90;;;;;;12580734;28;20052;-35
2023/11/13 23:48:47;;;;;;;12.00;1.92;;;11.00;99.90;;;;;;12585901;28;20178;-35
2023/11/13 23:55:32;;;;;;;12.00;2.20;;;10.90;99.90;;;;;;12584226;28;20495;-35
